Time;durP1;ratioP1;P1;durP2;ratioP2;P2;SDS_P1;SDS_P2;PMS_P1;PMS_P2;Temp;Humidity;BMP_temperature;BMP_pressure;BME280_temperature;BME280_humidity;BME280_pressure;Samples;Min_cycle;Max_cycle;Signal;HPM_P1;HPM_P2
2023/02/25 00:01:07;;;;;;;4.83;3.10;;;7.30;99.90;;;;;;4952913;28;20557;-65
2023/02/25 00:03:34;;;;;;;5.00;3.27;;;7.30;99.90;;;;;;4956981;28;20193;-65
2023/02/25 00:06:02;;;;;;;2.50;2.30;;;7.30;99.90;;;;;;4955883;28;20236;-65
2023/02/25 00:08:29;;;;;;;3.67;3.20;;;7.30;99.90;;;;;;4956104;28;20264;-66
2023/02/25 00:11:00;;;;;;;4.47;2.90;;;7.20;99.90;;;;;;4956393;28;20213;-65
2023/02/25 00:13:29;;;;;;;4.43;3.40;;;7.20;99.90;;;;;;4954119;28;20208;-66
2023/02/25 00:15:57;;;;;;;5.10;3.87;;;7.20;99.90;;;;;;4955935;28;20198;-66
2023/02/25 00:18:24;;;;;;;3.40;2.63;;;7.30;99.90;;;;;;4956089;28;20193;-66
2023/02/25 00:20:52;;;;;;;4.47;3.50;;;7.20;99.90;;;;;;4955622;28;20338;-66
2023/02/25 00:23:20;;;;;;;4.27;3.40;;;7.20;99.90;;;;;;4955485;28;20268;-66
2023/02/25 00:25:47;;;;;;;4.20;3.13;;;7.20;99.90;;;;;;4956184;28;20224;-66
2023/02/25 00:28:14;;;;;;;3.50;2.83;;;7.20;99.90;;;;;;4962420;28;20596;-66
2023/02/25 00:30:43;;;;;;;3.17;2.60;;;7.20;99.90;;;;;;4955425;28;20693;-66
2023/02/25 00:33:12;;;;;;;2.43;2.23;;;7.20;99.90;;;;;;4967532;28;20202;-65
2023/02/25 00:35:39;;;;;;;4.57;2.70;;;7.20;99.90;;;;;;4957709;28;20280;-66
2023/02/25 00:38:09;;;;;;;3.83;2.43;;;7.20;99.90;;;;;;4955637;28;20201;-65
2023/02/25 00:40:39;;;;;;;3.00;2.80;;;7.20;99.90;;;;;;4956433;28;20244;-66
2023/02/25 00:43:08;;;;;;;3.00;2.40;;;7.20;99.90;;;;;;4960971;28;20297;-64
2023/02/25 00:45:35;;;;;;;2.63;2.40;;;7.20;99.90;;;;;;4953745;28;20280;-66
2023/02/25 00:48:03;;;;;;;3.17;2.73;;;7.20;99.90;;;;;;4939026;28;20205;-66
2023/02/25 00:50:30;;;;;;;5.00;3.13;;;7.20;99.90;;;;;;4963284;28;20221;-66
2023/02/25 00:52:58;;;;;;;2.23;2.13;;;7.10;99.90;;;;;;4963265;28;20666;-65
2023/02/25 00:55:32;;;;;;;3.63;3.03;;;7.10;99.90;;;;;;4960069;28;20205;-65
2023/02/25 00:58:00;;;;;;;3.73;3.10;;;7.10;99.90;;;;;;4952608;28;20569;-65
2023/02/25 01:00:28;;;;;;;2.90;2.70;;;7.10;99.90;;;;;;4963262;28;20288;-66
2023/02/25 01:02:56;;;;;;;2.60;2.40;;;7.10;99.90;;;;;;4953772;28;20200;-65
2023/02/25 01:05:25;;;;;;;3.60;2.60;;;7.10;99.90;;;;;;4954271;28;20189;-66
2023/02/25 01:07:53;;;;;;;3.03;2.50;;;7.10;99.90;;;;;;4970716;28;20232;-66
2023/02/25 01:10:21;;;;;;;3.57;3.00;;;7.20;99.90;;;;;;4973040;28;20227;-66
2023/02/25 01:12:48;;;;;;;3.37;2.80;;;7.10;99.90;;;;;;4970847;28;20334;-66
2023/02/25 01:15:16;;;;;;;4.30;2.93;;;7.10;99.90;;;;;;4971337;28;20205;-66
2023/02/25 01:17:43;;;;;;;5.00;3.40;;;7.10;99.90;;;;;;4972923;28;20209;-66
2023/02/25 01:20:11;;;;;;;5.40;3.60;;;7.10;99.90;;;;;;4972553;28;20200;-67
2023/02/25 01:22:40;;;;;;;6.63;4.07;;;7.10;99.90;;;;;;4973545;28;20478;-66
2023/02/25 01:25:12;;;;;;;4.00;3.20;;;7.10;99.90;;;;;;4973023;28;20557;-65
2023/02/25 01:27:40;;;;;;;7.17;3.60;;;7.10;99.90;;;;;;4971606;28;20188;-65
2023/02/25 01:30:08;;;;;;;6.23;4.70;;;7.10;99.90;;;;;;4972684;28;20611;-65
2023/02/25 01:32:36;;;;;;;7.90;4.67;;;7.10;99.90;;;;;;4968725;28;20203;-67
2023/02/25 01:35:04;;;;;;;6.47;4.10;;;7.00;99.90;;;;;;4971789;28;20199;-66
2023/02/25 01:37:31;;;;;;;4.57;3.80;;;7.00;99.90;;;;;;4983289;28;20608;-66
2023/02/25 01:40:00;;;;;;;4.67;3.57;;;7.00;99.90;;;;;;4968457;28;20200;-64
2023/02/25 01:42:27;;;;;;;6.20;3.73;;;7.00;99.90;;;;;;4969818;28;20683;-64
2023/02/25 01:45:29;;;;;;;3.87;3.43;;;7.00;99.90;;;;;;4972745;28;20208;-65
2023/02/25 01:48:02;;;;;;;4.10;3.33;;;7.00;99.90;;;;;;4971085;28;20256;-65
2023/02/25 01:50:39;;;;;;;3.40;3.10;;;6.90;99.90;;;;;;4967311;28;20204;-66
2023/02/25 01:53:08;;;;;;;2.90;2.70;;;6.90;99.90;;;;;;4980399;28;20648;-66
2023/02/25 01:55:40;;;;;;;3.13;2.90;;;6.90;99.90;;;;;;4971094;28;20201;-66
2023/02/25 01:58:09;;;;;;;2.50;2.20;;;6.90;99.90;;;;;;4978716;28;20665;-66
2023/02/25 02:00:39;;;;;;;2.80;2.50;;;6.90;99.90;;;;;;4968320;28;20584;-66
2023/02/25 02:03:14;;;;;;;2.60;2.40;;;7.00;99.90;;;;;;4968322;28;20231;-65
2023/02/25 02:06:03;;;;;;;5.63;3.37;;;7.00;99.90;;;;;;4969352;28;20566;-66
2023/02/25 02:08:34;;;;;;;6.20;2.93;;;7.00;99.90;;;;;;4978442;28;20208;-66
2023/02/25 02:11:03;;;;;;;10.33;3.97;;;7.00;99.90;;;;;;4971748;28;20612;-66
2023/02/25 02:13:32;;;;;;;10.67;4.53;;;7.00;99.90;;;;;;4969994;28;20197;-66
2023/02/25 02:16:23;;;;;;;7.77;3.50;;;7.00;99.90;;;;;;4974840;28;20192;-66
2023/02/25 02:18:56;;;;;;;15.33;6.20;;;7.00;99.90;;;;;;4970184;28;20212;-66
2023/02/25 02:21:45;;;;;;;16.70;6.37;;;7.00;99.90;;;;;;4967673;28;20197;-66
2023/02/25 02:24:39;;;;;;;12.07;5.00;;;7.00;99.90;;;;;;4970133;28;20203;-65
2023/02/25 02:27:10;;;;;;;10.57;4.90;;;7.00;99.90;;;;;;4970804;28;20261;-66
2023/02/25 02:30:14;;;;;;;13.63;5.73;;;7.00;99.90;;;;;;4971849;28;20195;-66
2023/02/25 02:32:48;;;;;;;14.43;6.10;;;7.00;99.90;;;;;;4986082;28;20225;-66
2023/02/25 02:35:23;;;;;;;19.33;6.77;;;7.00;99.90;;;;;;4972460;28;20295;-66
2023/02/25 02:38:04;;;;;;;12.53;6.00;;;7.00;99.90;;;;;;4973234;28;20897;-66
2023/02/25 02:40:50;;;;;;;16.17;6.03;;;7.00;99.90;;;;;;4987262;28;20211;-65
2023/02/25 02:43:34;;;;;;;15.23;5.87;;;7.00;99.90;;;;;;4983311;28;20196;-64
2023/02/25 02:46:09;;;;;;;9.57;4.60;;;7.00;99.90;;;;;;4986092;28;20209;-64
2023/02/25 02:48:42;;;;;;;9.27;4.03;;;7.00;99.90;;;;;;4979177;28;20660;-65
2023/02/25 02:51:16;;;;;;;15.23;6.50;;;7.00;99.90;;;;;;4973537;28;20240;-65
2023/02/25 02:53:49;;;;;;;10.60;4.30;;;7.10;99.90;;;;;;4974606;28;20217;-65
2023/02/25 02:56:20;;;;;;;14.77;6.43;;;7.10;99.90;;;;;;4968946;28;20200;-65
2023/02/25 02:58:52;;;;;;;10.57;4.70;;;7.10;99.90;;;;;;4973117;28;20196;-65
2023/02/25 03:01:25;;;;;;;10.27;4.70;;;7.10;99.90;;;;;;4969005;28;20248;-65
2023/02/25 03:04:00;;;;;;;7.77;4.47;;;7.10;99.90;;;;;;4987468;28;20284;-64
2023/02/25 03:06:31;;;;;;;6.27;3.80;;;7.10;99.90;;;;;;4971565;28;20321;-65
2023/02/25 03:09:04;;;;;;;4.57;3.90;;;7.10;99.90;;;;;;4954277;28;20617;-65
2023/02/25 03:11:35;;;;;;;4.50;3.90;;;7.00;99.90;;;;;;4981319;28;20701;-65
2023/02/25 03:14:02;;;;;;;6.30;4.17;;;7.10;99.90;;;;;;4966322;28;20208;-65
2023/02/25 03:16:35;;;;;;;3.87;3.17;;;7.10;99.90;;;;;;4951763;28;20211;-65
2023/02/25 03:19:08;;;;;;;5.53;3.50;;;7.00;99.90;;;;;;4952672;28;20193;-65
2023/02/25 03:21:42;;;;;;;3.60;3.30;;;7.00;99.90;;;;;;4953447;28;20188;-65
2023/02/25 03:24:13;;;;;;;3.80;3.40;;;7.00;99.90;;;;;;4952623;28;20653;-65
2023/02/25 03:26:41;;;;;;;4.83;3.93;;;7.00;99.90;;;;;;4953399;28;20211;-65
2023/02/25 03:29:17;;;;;;;6.83;4.50;;;7.00;99.90;;;;;;4952724;28;20279;-65
2023/02/25 03:31:50;;;;;;;6.00;4.40;;;7.00;99.90;;;;;;4964918;28;20228;-65
2023/02/25 03:34:23;;;;;;;6.60;4.87;;;7.00;99.90;;;;;;4950190;28;20691;-66
2023/02/25 03:36:56;;;;;;;4.67;4.10;;;7.00;99.90;;;;;;4950742;28;20203;-65
2023/02/25 03:39:28;;;;;;;6.57;4.90;;;7.00;99.90;;;;;;4965821;28;20223;-66
2023/02/25 03:42:02;;;;;;;4.83;3.97;;;7.00;99.90;;;;;;4967173;28;20204;-67
2023/02/25 03:44:33;;;;;;;4.87;4.30;;;7.00;99.90;;;;;;4951226;28;20203;-66
2023/02/25 03:47:02;;;;;;;4.90;4.00;;;7.00;99.90;;;;;;4964302;28;20200;-66
2023/02/25 03:49:35;;;;;;;4.93;3.80;;;7.00;99.90;;;;;;4968895;28;20208;-67
2023/02/25 03:52:06;;;;;;;4.37;3.83;;;7.00;99.90;;;;;;4964737;28;20300;-67
2023/02/25 03:54:34;;;;;;;5.63;3.53;;;7.00;99.90;;;;;;4952777;28;20214;-67
2023/02/25 03:57:02;;;;;;;3.53;3.03;;;6.90;99.90;;;;;;4951302;28;20206;-67
2023/02/25 03:59:30;;;;;;;6.60;4.70;;;6.90;99.90;;;;;;4950733;28;20197;-67
2023/02/25 04:01:58;;;;;;;5.03;3.60;;;6.90;99.90;;;;;;4949480;28;20202;-67
2023/02/25 04:04:25;;;;;;;6.33;4.23;;;6.90;99.90;;;;;;4950111;28;20290;-67
2023/02/25 04:06:54;;;;;;;4.07;3.37;;;6.90;99.90;;;;;;4943041;28;20334;-67
2023/02/25 04:09:21;;;;;;;3.43;3.13;;;6.90;99.90;;;;;;4949754;28;20565;-67
2023/02/25 04:11:48;;;;;;;4.87;3.40;;;6.90;99.90;;;;;;4955798;28;20626;-67
2023/02/25 04:14:17;;;;;;;3.80;3.50;;;6.90;99.90;;;;;;4952517;28;20199;-67
2023/02/25 04:16:44;;;;;;;4.20;3.20;;;6.90;99.90;;;;;;4965182;28;20216;-67
2023/02/25 04:19:11;;;;;;;2.90;2.70;;;6.90;99.90;;;;;;4933242;29;20208;-67
2023/02/25 04:21:39;;;;;;;3.33;2.70;;;6.90;99.90;;;;;;4950490;28;20207;-67
2023/02/25 04:24:08;;;;;;;6.83;3.97;;;6.90;99.90;;;;;;4949865;28;20612;-67
2023/02/25 04:26:36;;;;;;;5.60;4.37;;;6.90;99.90;;;;;;4950208;28;20197;-67
2023/02/25 04:29:04;;;;;;;5.47;3.60;;;6.90;99.90;;;;;;4950394;28;20208;-67
2023/02/25 04:31:31;;;;;;;5.57;4.03;;;6.90;99.90;;;;;;4949481;28;20240;-67
2023/02/25 04:33:58;;;;;;;4.17;3.10;;;7.00;99.90;;;;;;4951629;28;20205;-67
2023/02/25 04:36:28;;;;;;;4.80;3.80;;;7.00;99.90;;;;;;4951662;28;20196;-67
2023/02/25 04:38:56;;;;;;;5.40;3.90;;;7.00;99.90;;;;;;4948213;29;20214;-68
2023/02/25 04:41:28;;;;;;;6.07;4.50;;;7.00;99.90;;;;;;4949261;28;20635;-67
2023/02/25 04:43:55;;;;;;;5.10;3.73;;;7.00;99.90;;;;;;4952540;28;20225;-66
2023/02/25 04:46:22;;;;;;;6.50;4.60;;;7.00;99.90;;;;;;4950388;28;20204;-67
2023/02/25 04:48:49;;;;;;;6.13;4.47;;;7.00;99.90;;;;;;4950690;28;20218;-67
2023/02/25 04:51:16;;;;;;;4.57;3.97;;;7.00;99.90;;;;;;4952263;29;20193;-67
2023/02/25 04:53:45;;;;;;;3.80;3.27;;;6.90;99.90;;;;;;4953130;28;20215;-67
2023/02/25 04:56:12;;;;;;;6.67;4.27;;;6.90;99.90;;;;;;4954800;28;20208;-67
2023/02/25 04:58:41;;;;;;;4.00;3.60;;;6.90;99.90;;;;;;4955536;28;20203;-67
2023/02/25 05:01:09;;;;;;;6.23;4.10;;;6.90;99.90;;;;;;4952295;28;20208;-67
2023/02/25 05:03:36;;;;;;;2.93;2.70;;;6.90;99.90;;;;;;4953177;28;20217;-67
2023/02/25 05:06:05;;;;;;;4.57;3.63;;;6.90;99.90;;;;;;4953546;28;20205;-67
2023/02/25 05:08:33;;;;;;;3.47;3.17;;;6.90;99.90;;;;;;4954944;28;20200;-67
2023/02/25 05:11:01;;;;;;;5.20;3.33;;;6.90;99.90;;;;;;4955275;28;20574;-67
2023/02/25 05:13:29;;;;;;;3.57;3.00;;;6.90;99.90;;;;;;4954944;28;20631;-66
2023/02/25 05:16:06;;;;;;;7.87;4.10;;;6.90;99.90;;;;;;4954309;28;20204;-67
2023/02/25 05:18:36;;;;;;;5.47;3.60;;;6.90;99.90;;;;;;4968857;28;20646;-66
2023/02/25 05:21:03;;;;;;;6.83;4.60;;;6.90;99.90;;;;;;4954810;28;20680;-66
2023/02/25 05:23:30;;;;;;;7.17;4.10;;;6.90;99.90;;;;;;4965575;28;20283;-67
2023/02/25 05:25:59;;;;;;;8.20;4.47;;;6.90;99.90;;;;;;4955757;28;20251;-66
2023/02/25 05:28:26;;;;;;;8.87;4.57;;;6.90;99.90;;;;;;4953701;28;20201;-66
2023/02/25 05:30:54;;;;;;;9.17;5.37;;;6.90;99.90;;;;;;4956622;28;20197;-66
2023/02/25 05:33:23;;;;;;;13.37;6.90;;;7.00;99.90;;;;;;4960003;28;20211;-66
2023/02/25 05:35:50;;;;;;;11.07;6.33;;;6.90;99.90;;;;;;4938294;28;20272;-65
2023/02/25 05:38:17;;;;;;;13.70;6.47;;;6.90;99.90;;;;;;4953702;28;20225;-66
2023/02/25 05:40:44;;;;;;;8.77;5.63;;;6.90;99.90;;;;;;4956146;28;20202;-66
2023/02/25 05:43:12;;;;;;;11.63;6.03;;;6.80;99.90;;;;;;4950423;28;20203;-66
2023/02/25 05:45:41;;;;;;;10.27;5.67;;;6.80;99.90;;;;;;4955851;28;20214;-66
2023/02/25 05:48:08;;;;;;;7.97;4.70;;;6.80;99.90;;;;;;4936356;28;20290;-66
2023/02/25 05:50:40;;;;;;;6.33;4.67;;;6.80;99.90;;;;;;4954434;28;20285;-66
2023/02/25 05:53:08;;;;;;;8.93;5.60;;;6.80;99.90;;;;;;4955538;28;20216;-67
2023/02/25 05:55:40;;;;;;;4.97;3.90;;;6.70;99.90;;;;;;4954463;28;20616;-66
2023/02/25 05:58:07;;;;;;;7.90;4.93;;;6.70;99.90;;;;;;4954360;28;20216;-65
2023/02/25 06:00:34;;;;;;;6.67;4.70;;;7.70;99.90;;;;;;4952178;28;20204;-64
2023/02/25 06:03:01;;;;;;;7.37;4.67;;;6.70;99.90;;;;;;4951715;28;20219;-66
2023/02/25 06:05:29;;;;;;;7.37;5.00;;;6.70;99.90;;;;;;4952538;28;20680;-66
2023/02/25 06:07:58;;;;;;;10.60;5.87;;;6.70;99.90;;;;;;4973807;28;20301;-66
2023/02/25 06:10:25;;;;;;;7.97;4.87;;;6.70;99.90;;;;;;4972740;28;20219;-66
2023/02/25 06:12:53;;;;;;;8.97;5.13;;;6.70;99.90;;;;;;4969865;28;20210;-66
2023/02/25 06:15:20;;;;;;;7.63;4.90;;;6.70;99.90;;;;;;4967840;28;20205;-66
2023/02/25 06:17:47;;;;;;;4.50;3.83;;;6.70;99.90;;;;;;4969161;28;20328;-66
2023/02/25 06:20:15;;;;;;;5.47;4.47;;;6.70;99.90;;;;;;4970774;28;20203;-66
2023/02/25 06:22:43;;;;;;;6.43;4.90;;;6.70;99.90;;;;;;4970407;28;20194;-66
2023/02/25 06:25:11;;;;;;;7.33;5.17;;;6.70;99.90;;;;;;4971990;28;20266;-67
2023/02/25 06:27:38;;;;;;;7.47;5.37;;;6.60;99.90;;;;;;4967641;28;20202;-67
2023/02/25 06:30:07;;;;;;;6.50;4.77;;;6.60;99.90;;;;;;4971461;28;20204;-67
2023/02/25 06:32:34;;;;;;;5.33;4.43;;;6.60;99.90;;;;;;4968705;28;20297;-67
2023/02/25 06:35:01;;;;;;;6.27;4.50;;;6.60;99.90;;;;;;4986898;28;20204;-67
2023/02/25 06:37:28;;;;;;;5.20;4.30;;;6.60;99.90;;;;;;4972358;28;20192;-68
2023/02/25 06:39:55;;;;;;;5.87;4.20;;;6.70;99.90;;;;;;4970276;28;20203;-65
2023/02/25 06:42:24;;;;;;;3.77;3.47;;;6.70;99.90;;;;;;4969695;28;20252;-66
2023/02/25 06:44:51;;;;;;;4.23;3.77;;;6.70;99.90;;;;;;4967793;28;20202;-66
2023/02/25 06:47:18;;;;;;;4.30;3.80;;;6.70;99.90;;;;;;4969118;28;20876;-67
2023/02/25 06:49:46;;;;;;;5.53;3.53;;;6.70;99.90;;;;;;4969017;28;20206;-67
2023/02/25 06:52:13;;;;;;;4.97;4.07;;;6.70;99.90;;;;;;4970883;28;20698;-67
2023/02/25 06:54:40;;;;;;;4.40;3.80;;;6.80;99.90;;;;;;4967431;28;20212;-67
2023/02/25 06:57:07;;;;;;;3.30;3.00;;;6.80;99.90;;;;;;4968257;28;20198;-67
2023/02/25 06:59:36;;;;;;;2.87;2.60;;;6.80;99.90;;;;;;4968729;28;20274;-67
2023/02/25 07:02:03;;;;;;;5.70;3.43;;;6.90;99.90;;;;;;4969688;28;20193;-66
2023/02/25 07:04:30;;;;;;;3.10;2.80;;;6.90;99.90;;;;;;4970521;28;20195;-67
2023/02/25 07:06:57;;;;;;;2.47;2.27;;;6.90;99.90;;;;;;4966843;28;20232;-67
2023/02/25 07:09:24;;;;;;;2.80;2.60;;;7.00;99.90;;;;;;4952066;28;20287;-66
2023/02/25 07:11:52;;;;;;;3.03;2.70;;;7.00;99.90;;;;;;4951595;28;20575;-64
2023/02/25 07:14:19;;;;;;;2.50;2.30;;;7.00;99.90;;;;;;4951908;28;20301;-66
2023/02/25 07:16:47;;;;;;;2.40;2.20;;;7.00;99.90;;;;;;4966534;28;20200;-66
2023/02/25 07:19:15;;;;;;;3.67;2.97;;;7.00;99.90;;;;;;4947676;28;20193;-64
2023/02/25 07:21:43;;;;;;;2.77;2.57;;;7.10;99.90;;;;;;4951278;28;20280;-64
2023/02/25 07:24:12;;;;;;;3.10;2.80;;;7.10;99.90;;;;;;4949984;28;20204;-65
2023/02/25 07:26:39;;;;;;;3.20;2.80;;;7.20;99.90;;;;;;4957235;28;20201;-65
2023/02/25 07:29:06;;;;;;;2.40;2.20;;;7.30;99.90;;;;;;4959119;28;20208;-65
2023/02/25 07:31:34;;;;;;;3.43;3.10;;;7.30;99.90;;;;;;4955626;28;20196;-65
2023/02/25 07:34:03;;;;;;;3.60;3.30;;;7.40;99.90;;;;;;4951651;28;20216;-65
2023/02/25 07:36:31;;;;;;;2.80;2.60;;;7.40;99.90;;;;;;4951564;28;20216;-65
2023/02/25 07:39:00;;;;;;;2.97;2.67;;;7.40;99.90;;;;;;4949942;28;20203;-66
2023/02/25 07:41:28;;;;;;;3.43;3.00;;;7.50;99.90;;;;;;4950176;28;20201;-66
2023/02/25 07:44:02;;;;;;;3.33;3.00;;;7.50;99.90;;;;;;4961072;28;20197;-66
2023/02/25 07:46:30;;;;;;;7.90;5.57;;;7.60;99.90;;;;;;4950858;28;20208;-66
2023/02/25 07:48:57;;;;;;;7.70;5.47;;;7.60;99.90;;;;;;4950357;28;20757;-66
2023/02/25 07:51:26;;;;;;;5.07;4.37;;;7.60;99.90;;;;;;4950215;28;20197;-67
2023/02/25 07:53:55;;;;;;;4.70;4.00;;;7.60;99.90;;;;;;4948774;28;20641;-67
2023/02/25 07:56:24;;;;;;;3.77;3.47;;;7.60;99.90;;;;;;4949937;28;20695;-67
2023/02/25 07:58:51;;;;;;;4.33;3.63;;;7.60;99.90;;;;;;4953007;28;20187;-67
2023/02/25 08:01:22;;;;;;;3.50;3.20;;;7.70;99.90;;;;;;4951323;28;20529;-67
2023/02/25 08:03:50;;;;;;;4.07;3.67;;;7.70;99.90;;;;;;4951148;28;20566;-67
2023/02/25 08:06:17;;;;;;;4.80;3.87;;;7.70;99.90;;;;;;4952289;28;20301;-67
2023/02/25 08:08:46;;;;;;;4.27;3.37;;;7.70;99.90;;;;;;4951501;28;20220;-66
2023/02/25 08:11:14;;;;;;;3.63;3.33;;;7.70;99.90;;;;;;4950531;28;20208;-67
2023/02/25 08:13:41;;;;;;;3.57;3.27;;;7.70;99.90;;;;;;4951629;28;20205;-67
2023/02/25 08:16:11;;;;;;;3.43;2.67;;;7.70;99.90;;;;;;4951785;28;20205;-66
2023/02/25 08:18:41;;;;;;;4.57;3.23;;;7.70;99.90;;;;;;4950160;28;20194;-67
2023/02/25 08:21:09;;;;;;;5.60;3.47;;;7.70;99.90;;;;;;4951935;28;20287;-66
2023/02/25 08:23:36;;;;;;;4.73;3.93;;;7.70;99.90;;;;;;4960237;28;20194;-65
2023/02/25 08:26:05;;;;;;;6.87;4.43;;;7.70;99.90;;;;;;4955536;28;20194;-65
2023/02/25 08:28:33;;;;;;;3.90;3.50;;;7.60;99.90;;;;;;4954527;28;20219;-65
2023/02/25 08:31:00;;;;;;;5.23;3.50;;;7.60;99.90;;;;;;4954722;28;20197;-66
2023/02/25 08:33:29;;;;;;;3.47;3.17;;;7.60;99.90;;;;;;4956112;28;20678;-67
2023/02/25 08:36:05;;;;;;;3.23;2.93;;;7.60;99.90;;;;;;4953962;28;20205;-67
2023/02/25 08:38:32;;;;;;;3.57;3.27;;;7.60;99.90;;;;;;4963473;28;20214;-65
2023/02/25 08:41:00;;;;;;;2.97;2.67;;;7.50;99.90;;;;;;4951387;28;20202;-66
2023/02/25 08:43:29;;;;;;;3.03;2.73;;;7.50;99.90;;;;;;4952931;28;20197;-66
2023/02/25 08:45:56;;;;;;;2.70;2.50;;;7.50;99.90;;;;;;4955199;28;20270;-66
2023/02/25 08:48:24;;;;;;;3.07;2.77;;;7.60;99.90;;;;;;4970156;28;20209;-66
2023/02/25 08:50:51;;;;;;;2.87;2.30;;;7.60;99.90;;;;;;4952411;28;20208;-67
2023/02/25 08:53:19;;;;;;;2.40;2.20;;;7.60;99.90;;;;;;4953676;28;20244;-67
2023/02/25 08:55:47;;;;;;;6.10;2.10;;;7.60;99.90;;;;;;4955963;28;20209;-66
2023/02/25 08:58:14;;;;;;;2.00;1.90;;;7.60;99.90;;;;;;4953798;28;20265;-66
2023/02/25 09:00:43;;;;;;;2.07;1.97;;;7.70;99.90;;;;;;4957703;28;20207;-65
2023/02/25 09:03:10;;;;;;;4.63;3.57;;;7.70;99.90;;;;;;4953292;28;20196;-65
2023/02/25 09:05:37;;;;;;;4.07;3.50;;;7.70;99.90;;;;;;4963314;28;20697;-66
2023/02/25 09:08:05;;;;;;;5.07;4.03;;;7.70;99.90;;;;;;4958653;28;20284;-65
2023/02/25 09:10:34;;;;;;;3.77;3.47;;;7.70;99.90;;;;;;4961059;28;20202;-65
2023/02/25 09:13:02;;;;;;;5.73;3.37;;;7.60;99.90;;;;;;4963227;28;20213;-67
2023/02/25 09:15:31;;;;;;;3.13;2.87;;;7.60;99.90;;;;;;4956062;28;20221;-64
2023/02/25 09:17:59;;;;;;;3.93;3.07;;;7.60;99.90;;;;;;4955868;28;20561;-64
2023/02/25 09:20:27;;;;;;;3.03;2.80;;;7.60;99.90;;;;;;4957212;28;20204;-64
2023/02/25 09:22:54;;;;;;;3.47;3.17;;;7.60;99.90;;;;;;4956507;28;20256;-64
2023/02/25 09:25:21;;;;;;;3.00;2.40;;;7.60;99.90;;;;;;4952038;28;20197;-66
2023/02/25 09:27:49;;;;;;;2.40;2.23;;;7.60;99.90;;;;;;4980763;28;20196;-65
2023/02/25 09:30:16;;;;;;;1.97;1.80;;;7.60;99.90;;;;;;4954944;28;20221;-66
2023/02/25 09:32:44;;;;;;;2.40;2.20;;;7.60;99.90;;;;;;4952294;28;20708;-66
2023/02/25 09:35:13;;;;;;;1.83;1.73;;;7.60;99.90;;;;;;4953967;28;20197;-66
2023/02/25 09:37:40;;;;;;;2.13;2.03;;;7.70;99.90;;;;;;4960641;28;20284;-67
2023/02/25 09:40:10;;;;;;;2.17;1.70;;;7.70;99.90;;;;;;4953271;28;20197;-65
2023/02/25 09:42:47;;;;;;;1.70;1.60;;;7.80;99.90;;;;;;4953618;28;20209;-66
2023/02/25 09:45:18;;;;;;;19.97;3.57;;;7.90;99.90;;;;;;4953392;28;20192;-65
2023/02/25 09:47:51;;;;;;;13.80;3.20;;;8.00;99.90;;;;;;4956852;28;20233;-65
2023/02/25 09:50:23;;;;;;;3.90;3.10;;;8.00;99.90;;;;;;4953666;28;20205;-65
2023/02/25 09:52:59;;;;;;;7.10;3.00;;;7.90;99.90;;;;;;4952599;28;20771;-65
2023/02/25 09:55:32;;;;;;;8.37;2.70;;;7.90;99.90;;;;;;4956689;28;20187;-65
2023/02/25 09:58:06;;;;;;;2.07;1.97;;;7.90;99.90;;;;;;4953276;28;20673;-66
2023/02/25 10:00:40;;;;;;;4.67;2.50;;;7.90;99.90;;;;;;4954945;28;20197;-63
2023/02/25 10:03:17;;;;;;;4.57;2.00;;;7.90;99.90;;;;;;4954153;28;20538;-66
2023/02/25 10:05:54;;;;;;;5.83;2.60;;;7.90;99.90;;;;;;4954892;28;20209;-66
2023/02/25 10:08:28;;;;;;;4.40;2.63;;;7.90;99.90;;;;;;4970951;28;20705;-65
2023/02/25 10:11:03;;;;;;;5.97;2.93;;;7.90;99.90;;;;;;4973578;28;20199;-64
2023/02/25 10:13:42;;;;;;;5.17;2.80;;;7.90;99.90;;;;;;4973440;28;20286;-65
2023/02/25 10:16:26;;;;;;;1.90;1.80;;;7.80;99.90;;;;;;4973301;28;20188;-66
2023/02/25 10:19:03;;;;;;;1.73;1.13;;;7.80;99.90;;;;;;4973939;28;20447;-66
2023/02/25 10:21:49;;;;;;;0.60;0.60;;;7.80;99.90;;;;;;4969671;28;20200;-64
2023/02/25 10:24:29;;;;;;;0.90;0.80;;;7.70;99.90;;;;;;4972248;28;20192;-65
2023/02/25 10:27:02;;;;;;;1.20;0.90;;;7.60;99.90;;;;;;4972638;28;20246;-65
2023/02/25 10:29:35;;;;;;;1.83;1.70;;;6.70;99.90;;;;;;4971842;28;20277;-64
2023/02/25 10:32:15;;;;;;;3.03;2.00;;;7.50;99.90;;;;;;4968726;28;20199;-65
2023/02/25 10:34:43;;;;;;;3.53;2.23;;;7.40;99.90;;;;;;4972359;28;20208;-65
2023/02/25 10:37:19;;;;;;;2.73;2.10;;;7.30;99.90;;;;;;4970565;28;20188;-65
2023/02/25 10:39:49;;;;;;;5.67;3.30;;;7.30;99.90;;;;;;4971055;28;20678;-65
2023/02/25 10:42:17;;;;;;;5.10;3.10;;;7.30;99.90;;;;;;4969907;28;20215;-65
2023/02/25 10:44:45;;;;;;;3.20;2.03;;;7.30;99.90;;;;;;4971298;28;20201;-65
2023/02/25 10:47:18;;;;;;;4.00;2.67;;;7.20;99.90;;;;;;4969536;28;20199;-65
2023/02/25 10:50:10;;;;;;;2.33;1.97;;;7.20;99.90;;;;;;4970876;28;20255;-65
2023/02/25 10:52:53;;;;;;;1.33;1.20;;;7.10;99.90;;;;;;4970367;28;20272;-65
2023/02/25 10:55:28;;;;;;;1.73;0.83;;;7.10;99.90;;;;;;4970326;28;20276;-65
2023/02/25 10:57:56;;;;;;;2.03;1.00;;;7.00;99.90;;;;;;4986200;28;20209;-65
2023/02/25 11:00:27;;;;;;;1.07;0.93;;;7.00;99.90;;;;;;4969730;28;20202;-65
2023/02/25 11:02:57;;;;;;;0.57;0.57;;;7.00;99.90;;;;;;4972196;28;20235;-65
2023/02/25 11:05:36;;;;;;;0.50;0.50;;;6.90;99.90;;;;;;4972099;28;20193;-65
2023/02/25 11:08:06;;;;;;;2.07;1.00;;;6.90;99.90;;;;;;4967965;28;20309;-65
2023/02/25 11:10:34;;;;;;;2.80;1.70;;;6.90;99.90;;;;;;4966641;28;20212;-65
2023/02/25 11:13:04;;;;;;;4.77;2.47;;;6.80;99.90;;;;;;4966515;28;20205;-65
2023/02/25 11:15:34;;;;;;;5.47;2.50;;;6.80;99.90;;;;;;4969333;28;20595;-66
2023/02/25 11:18:14;;;;;;;2.20;1.53;;;6.90;99.90;;;;;;4968185;28;20223;-66
2023/02/25 11:20:50;;;;;;;1.87;1.23;;;6.90;99.90;;;;;;4970631;28;20243;-66
2023/02/25 11:23:22;;;;;;;3.80;1.10;;;6.90;99.90;;;;;;4968976;28;20269;-65
2023/02/25 11:25:52;;;;;;;2.77;1.00;;;6.90;99.90;;;;;;4969259;28;20733;-66
2023/02/25 11:28:28;;;;;;;1.43;1.07;;;6.90;99.90;;;;;;4969061;28;20218;-66
2023/02/25 11:31:05;;;;;;;1.03;0.90;;;6.90;99.90;;;;;;4969653;28;20193;-65
2023/02/25 11:33:35;;;;;;;4.20;1.00;;;7.00;99.90;;;;;;4968444;28;20272;-66
2023/02/25 11:36:03;;;;;;;1.50;0.73;;;6.90;99.90;;;;;;4975244;28;20216;-65
2023/02/25 11:38:36;;;;;;;1.83;1.07;;;6.90;99.90;;;;;;4969424;28;20194;-65
2023/02/25 11:41:04;;;;;;;1.20;1.10;;;6.90;99.90;;;;;;4970037;28;20200;-66
2023/02/25 11:43:38;;;;;;;3.83;0.90;;;6.90;99.90;;;;;;4969701;28;20202;-65
2023/02/25 11:46:10;;;;;;;3.57;0.90;;;6.90;99.90;;;;;;4972240;28;20290;-65
2023/02/25 11:48:47;;;;;;;3.07;1.40;;;6.80;99.90;;;;;;4968766;28;20201;-65
2023/02/25 11:51:22;;;;;;;2.73;1.43;;;6.80;99.90;;;;;;4973197;28;20206;-65
2023/02/25 11:54:12;;;;;;;1.80;1.23;;;6.80;99.90;;;;;;4968466;28;20213;-64
2023/02/25 11:56:47;;;;;;;4.20;1.80;;;6.80;99.90;;;;;;4973104;28;20205;-66
2023/02/25 11:59:29;;;;;;;1.67;1.30;;;6.80;99.90;;;;;;4974233;28;20199;-64
2023/02/25 12:02:23;;;;;;;1.43;1.10;;;6.80;99.90;;;;;;4974564;28;20201;-63
2023/02/25 12:05:25;;;;;;;1.43;1.33;;;6.80;99.90;;;;;;4981747;28;20199;-64
2023/02/25 12:08:03;;;;;;;2.10;1.60;;;6.70;99.90;;;;;;4973666;28;20256;-65
2023/02/25 12:11:09;;;;;;;5.00;1.80;;;6.70;99.90;;;;;;4975416;28;20716;-64
2023/02/25 12:14:27;;;;;;;2.17;1.40;;;6.70;99.90;;;;;;4933037;29;20231;-65
2023/02/25 12:17:24;;;;;;;1.50;0.90;;;6.60;99.90;;;;;;4926785;28;20293;-66
2023/02/25 12:20:37;;;;;;;0.80;0.80;;;6.60;99.90;;;;;;4990266;28;20241;-65
2023/02/25 12:23:37;;;;;;;1.63;1.10;;;6.50;99.90;;;;;;4946666;28;20651;-65
2023/02/25 12:26:12;;;;;;;1.67;0.87;;;6.50;99.90;;;;;;4953872;28;20221;-66
2023/02/25 12:29:15;;;;;;;7.57;1.70;;;6.40;99.90;;;;;;4972575;28;20721;-66
2023/02/25 12:32:26;;;;;;;2.00;1.10;;;6.30;99.90;;;;;;4956512;28;20732;-67
2023/02/25 12:35:34;;;;;;;1.57;0.90;;;6.20;99.90;;;;;;4947673;29;20225;-66
2023/02/25 12:38:41;;;;;;;1.10;1.00;;;6.20;99.90;;;;;;4974095;28;20193;-66
2023/02/25 12:41:32;;;;;;;3.03;1.20;;;6.20;99.90;;;;;;4969485;28;20264;-66
2023/02/25 12:44:19;;;;;;;7.00;1.70;;;6.10;99.90;;;;;;4970624;28;20277;-65
2023/02/25 12:47:01;;;;;;;5.23;1.80;;;6.10;99.90;;;;;;4966427;28;20194;-65
2023/02/25 12:49:54;;;;;;;6.30;1.80;;;6.10;99.90;;;;;;4969209;28;20304;-65
2023/02/25 12:52:34;;;;;;;2.43;1.47;;;6.10;99.90;;;;;;4971356;28;20309;-66
2023/02/25 12:55:30;;;;;;;3.70;1.83;;;6.10;99.90;;;;;;4971664;28;20205;-65
2023/02/25 12:58:14;;;;;;;1.83;1.03;;;6.00;99.90;;;;;;4976957;28;20279;-64
2023/02/25 13:01:04;;;;;;;2.30;1.93;;;5.90;99.90;;;;;;4971713;28;20207;-65
2023/02/25 13:03:46;;;;;;;3.20;1.83;;;5.90;99.90;;;;;;4972872;28;20279;-64
2023/02/25 13:06:34;;;;;;;4.87;1.70;;;5.90;99.90;;;;;;4969382;28;20641;-64
2023/02/25 13:09:31;;;;;;;5.47;1.70;;;5.80;99.90;;;;;;4971985;28;20659;-65
2023/02/25 13:12:13;;;;;;;6.23;2.73;;;5.80;99.90;;;;;;4963777;28;20223;-66
2023/02/25 13:14:56;;;;;;;5.27;2.23;;;5.90;99.90;;;;;;4968569;28;20208;-65
2023/02/25 13:18:08;;;;;;;5.93;2.67;;;5.90;99.90;;;;;;4971772;28;20185;-65
2023/02/25 13:21:07;;;;;;;4.40;2.20;;;5.90;99.90;;;;;;4973843;28;20192;-66
2023/02/25 13:23:56;;;;;;;5.67;2.90;;;5.80;99.90;;;;;;4971547;28;20197;-67